This is the latest recevied weather packets stored in our database for station/object DG1UDO-13. If no packets are shown the sender has not sent any weather packets the latest 10 day(s).
| Time | Temp. | Humidity | Pressure | Rain* | Wind** | Luminosity | Snow |
|---|---|---|---|---|---|---|---|
| 1777752301 | 15.56° C | 80% | 1015.7 hPa | - | - | - | - |
| 1777750500 | 16.11° C | 76% | 1015.4 hPa | - | - | - | - |
| 1777748701 | 17.22° C | 71% | 1015.5 hPa | - | - | - | - |
| 1777746901 | 17.78° C | 63% | 1015.4 hPa | - | - | - | - |
| 1777745101 | 18.89° C | 58% | 1015.2 hPa | - | - | - | - |
| 1777743301 | 20° C | 54% | 1015.1 hPa | - | - | - | - |
| 1777741501 | 23.89° C | 43% | 1014.7 hPa | - | - | - | - |
| 1777739701 | 24.44° C | 39% | 1014.7 hPa | - | - | - | - |
| 1777737901 | 25° C | 37% | 1014.9 hPa | - | - | - | - |
| 1777736101 | 25.56° C | 35% | 1015.2 hPa | - | - | - | - |
| 1777734301 | 25.56° C | 36% | 1015.6 hPa | - | - | - | - |
| 1777732500 | 25.56° C | 34% | 1015.9 hPa | - | - | - | - |
| 1777730700 | 26.11° C | 33% | 1016.1 hPa | - | - | - | - |
| 1777728900 | 25.56° C | 33% | 1016.4 hPa | - | - | - | - |
| 1777727100 | 25.56° C | 30% | 1016.7 hPa | - | - | - | - |
| 1777725301 | 25° C | 29% | 1017 hPa | - | - | - | - |
| 1777723500 | 24.44° C | 29% | 1017.4 hPa | - | - | - | - |
| 1777721700 | 24.44° C | 34% | 1017.8 hPa | - | - | - | - |
| 1777719901 | 24.44° C | 33% | 1018 hPa | - | - | - | - |
| 1777718101 | 23.89° C | 34% | 1018.3 hPa | - | - | - | - |
| 1777716301 | 23.89° C | 36% | 1018.7 hPa | - | - | - | - |
| 1777714501 | 22.78° C | 40% | 1018.9 hPa | - | - | - | - |
| 1777712701 | 21.67° C | 41% | 1019.3 hPa | - | - | - | - |
| 1777710901 | 20.56° C | 44% | 1019.6 hPa | - | - | - | - |
| 1777709101 | 19.44° C | 48% | 1019.8 hPa | - | - | - | - |
* Rain since midnight (hover to see other rain measurements)
** Current wind speed in m/s (hover to see current wind gust speed)